• Join FlightAware (Why Join?)
  • Login
  • US Flag 
08:42PM EDT


 

Airport Tracker/Info


-or-


 

Live Flight TrackerFlight Track Log ✈ SWA127 ✈ 13-Apr-2013 ✈ KRSW - KBOS

Flight Track Log - Related Links

Times and Time Zones

All times are in EDT time to prevent confusion due to time zone crossing. See the SWA127 flight status page for this flight to view local times or setup timezone preferences in your user account.

Time Position Orientation Groundspeed Altitude Reporting Facility
EDT Latitude Longitude Course Direction KTS MPH feet Rate Location/Type
10:55AM 26.5217 -81.8967 344° North 231 266 5,300  Level Miami Center
10:56AM 26.5983 -81.9139 349° North 224 258 8,500 2,700 Climbing Miami Center
10:57AM 26.6819 -81.9153 359° North 248 285 10,700 2,400 Climbing Miami Center
10:58AM 26.7786 -81.8939 11° North 284 327 13,300 3,000 Climbing Miami Center
10:59AM 27.3060 -81.8303 346° North  Level FlightAware Approximate
10:59AM 26.8683 -81.8394 28° Northeast 328 377 16,700  Level Miami Center
11:00AM 27.4275 -81.8814 344° North  Level FlightAware Approximate
11:00AM 26.9600 -81.7806 30° Northeast 347 399 16,900  Level Miami Center
11:01AM 27.0506 -81.7564 13° North 360 414 19,300 2,760 Climbing Miami Center
11:02AM 27.1703 -81.7942 344° North 355 409 22,500 2,520 Climbing Miami Center
11:03AM 27.2672 -81.8264 344° North 375 432 24,500 1,920 Climbing Miami Center
11:04AM 27.3811 -81.8592 346° North 404 465 26,400 1,920 Climbing Miami Center
11:05AM 27.5119 -81.8111 18° North 426 490 28,400 1,680 Climbing Miami Center
11:06AM 27.6350 -81.7578 21° North 440 506 29,800 1,320 Climbing Miami Center
11:07AM 27.7619 -81.7022 21° North 463 533 31,100 1,380 Climbing Miami Center
11:08AM 27.8933 -81.6422 22° Northeast 487 560 32,600 1,560 Climbing Miami Center
11:09AM 28.0206 -81.5817 23° Northeast 494 568 34,300 1,500 Climbing Miami Center
11:11AM 28.2092 -81.4889 23° Northeast 507 583 36,400 1,500 Climbing Jacksonville Center
11:12AM 28.3358 -81.4353 20° North 502 578 38,100 1,200 Climbing Jacksonville Center
11:13AM 28.4622 -81.3767 22° Northeast 497 572 38,900 420 Climbing Jacksonville Center
11:14AM 28.5956 -81.3439 12° North 492 566 39,000  Climbing Jacksonville Center
11:15AM 28.7272 -81.3561 355° North 466 536 39,000  Level Jacksonville Center
11:16AM 28.8608 -81.3658 356° North 466 536 39,000  Level Jacksonville Center
11:17AM 28.9947 -81.3803 355° North 478 550 39,000  Level Jacksonville Center
11:18AM 29.1283 -81.3925 355° North 483 556 39,000  Level Jacksonville Center
11:19AM 29.2600 -81.4025 356° North 478 550 39,000  Level Jacksonville Center
11:20AM 29.3936 -81.4194 354° North 478 550 39,000  Level Jacksonville Center
11:21AM 29.5253 -81.4319 355° North 478 550 39,000  Level Jacksonville Center
11:22AM 29.6569 -81.4442 355° North 478 550 39,000  Level Jacksonville Center
11:23AM 29.7908 -81.4567 355° North 478 550 39,000  Level Jacksonville Center
11:24AM 29.9225 -81.4714 354° North 478 550 39,000  Level Jacksonville Center
11:25AM 30.0728 -81.4669 North 478 550 39,000  Level Jacksonville Center
11:26AM 30.2061 -81.4506 North 478 550 39,000  Level Jacksonville Center
11:27AM 30.3439 -81.4339 North 478 550 39,000  Level Jacksonville Center
11:28AM 30.4772 -81.4150 North 478 550 39,000  Level Jacksonville Center
11:29AM 30.6128 -81.3986 North 484 557 39,000  Level Jacksonville Center
11:30AM 30.7442 -81.3819 North 469 540 39,000  Level Jacksonville Center
11:31AM 30.8753 -81.3678 North 469 540 39,000  Level Jacksonville Center
11:32AM 31.0089 -81.3486 North 469 540 39,000  Level Jacksonville Center
11:33AM 31.1422 -81.3319 North 474 545 39,000  Level Jacksonville Center
11:34AM 31.2778 -81.3175 North 480 552 39,000  Level Jacksonville Center
11:35AM 31.3878 -81.2594 24° Northeast 472 543 39,000  Level Jacksonville Center
11:36AM 31.5139 -81.1647 33° Northeast 478 550 39,000  Level Jacksonville Center
11:37AM 31.6317 -81.0772 32° Northeast 493 567 39,000  Level Jacksonville Center
11:38AM 31.7369 -80.9994 32° Northeast 493 567 39,000  Level Jacksonville Center
11:39AM 31.8608 -80.9039 33° Northeast 494 568 39,000  Level Jacksonville Center
11:40AM 31.9658 -80.8233 33° Northeast 494 568 39,000  Level Jacksonville Center
11:41AM 32.0958 -80.7272 32° Northeast 494 568 39,000  Level Jacksonville Center
11:42AM 32.2111 -80.6386 33° Northeast 494 568 39,000  Level Jacksonville Center
11:43AM 32.3286 -80.5494 33° Northeast 494 568 39,000  Level Jacksonville Center
11:44AM 32.4458 -80.4603 33° Northeast 494 568 39,000  Level Jacksonville Center
11:45AM 32.5589 -80.3711 34° Northeast 494 568 39,000  Level Jacksonville Center
11:46AM 32.6781 -80.2789 33° Northeast 494 568 39,000  Level Jacksonville Center
11:47AM 32.7931 -80.1892 33° Northeast 494 568 39,000  Level Jacksonville Center
11:48AM 32.8997 -80.1042 34° Northeast 502 578 39,000  Level Jacksonville Center
11:49AM 33.0189 -80.0114 33° Northeast 507 583 39,000  Level Jacksonville Center
11:50AM 33.1378 -79.9208 33° Northeast 507 583 39,000  Level Jacksonville Center
11:51AM 33.2567 -79.8300 33° Northeast 507 583 39,000  Level Jacksonville Center
11:52AM 33.3714 -79.7389 34° Northeast 501 577 39,000  Level Jacksonville Center
11:53AM 33.4878 -79.6450 34° Northeast 496 571 39,000  Level Jacksonville Center
11:54AM 33.6044 -79.5561 32° Northeast 496 571 39,000  Level Jacksonville Center
11:55AM 33.7231 -79.4617 34° Northeast 496 571 39,000  Level Jacksonville Center
11:56AM 33.8353 -79.3722 33° Northeast 491 565 39,000  Level Jacksonville Center
11:57AM 33.9536 -79.2775 34° Northeast 496 571 39,000  Level Jacksonville Center
11:59AM 34.2131 -79.0700 33° Northeast 511 588 39,000  Level Washington Center
12:00PM 34.3325 -78.9769 33° Northeast 506 582 39,000  Level Washington Center
12:01PM 34.4519 -78.8886 31° Northeast 506 582 39,000  Level Washington Center
12:02PM 34.5692 -78.7950 33° Northeast 506 582 39,000  Level Washington Center
12:03PM 34.6928 -78.7014 32° Northeast 514 592 39,000  Level Washington Center
12:04PM 34.8011 -78.6169 33° Northeast 514 592 39,000  Level Washington Center
12:05PM 34.9203 -78.5278 32° Northeast 509 586 39,000  Level Washington Center
12:06PM 35.0372 -78.4356 33° Northeast 509 586 39,000  Level Washington Center
12:07PM 35.1583 -78.3408 33° Northeast 514 592 39,000  Level Washington Center
12:08PM 35.2772 -78.2508 32° Northeast 514 592 39,000  Level Washington Center
12:09PM 35.3983 -78.1581 32° Northeast 514 592 39,000  Level Washington Center
12:10PM 35.5192 -78.0622 33° Northeast 514 592 39,000  Level Washington Center
12:11PM 35.6381 -77.9689 33° Northeast 509 586 39,000  Level Washington Center
12:12PM 35.7586 -77.8753 32° Northeast 509 586 39,000  Level Washington Center
12:13PM 35.8794 -77.7839 31° Northeast 509 586 39,000  Level Washington Center
12:14PM 35.9981 -77.6869 33° Northeast 509 586 39,000 -60 Level Washington Center
12:15PM 36.1125 -77.5819 37° Northeast 514 592 38,900 -660 Descending Washington Center
12:16PM 36.2353 -77.4614 38° Northeast 514 592 37,700 -960 Descending Washington Center
12:17PM 36.3558 -77.3536 36° Northeast 514 592 37,000 -360 Descending Washington Center
12:18PM 36.4744 -77.2372 38° Northeast 525 604 37,000  Level Washington Center
12:19PM 36.5969 -77.1236 37° Northeast 537 618 37,000  Level Washington Center
12:20PM 36.7153 -77.0092 38° Northeast 537 618 37,000  Level Washington Center
12:21PM 36.8394 -76.9000 35° Northeast 537 618 37,000  Level Washington Center
12:22PM 36.9617 -76.7875 36° Northeast 537 618 37,000  Level Washington Center
12:23PM 37.0858 -76.6750 36° Northeast 543 625 37,000  Level Washington Center
12:24PM 37.1972 -76.5722 36° Northeast 549 632 37,000  Level Washington Center
12:25PM 37.3192 -76.4614 36° Northeast 549 632 37,000 -240 Level Washington Center
12:26PM 37.4386 -76.3531 36° Northeast 549 632 36,600 -960 Descending Washington Center
12:27PM 37.5583 -76.2414 36° Northeast 544 626 35,100 -840 Descending Washington Center
12:28PM 37.6903 -76.1325 33° Northeast 528 608 35,000 -60 Descending Washington Center
12:29PM 37.7908 -76.0281 39° Northeast 517 595 35,000  Level Washington Center
12:30PM 37.9078 -75.9233 35° Northeast 517 595 35,000  Level Washington Center
12:31PM 38.0375 -75.8081 35° Northeast 517 595 35,000  Level Washington Center
12:32PM 38.1356 -75.7025 40° Northeast 517 595 35,000  Level Washington Center
12:33PM 38.2525 -75.5997 35° Northeast 511 588 35,000  Level Washington Center
12:34PM 38.3900 -75.4936 31° Northeast 511 588 35,000  Level Washington Center
12:35PM 38.5233 -75.4378 18° North 503 579 35,000  Level Washington Center
12:36PM 38.6608 -75.3789 18° North 503 579 35,000  Level Washington Center
12:37PM 38.7942 -75.3253 17° North 503 579 35,000  Level Washington Center
12:38PM 38.9231 -75.2367 28° Northeast 503 579 35,000  Level Washington Center
12:39PM 39.0436 -75.1239 36° Northeast 517 595 35,000  Level Washington Center
12:40PM 39.1619 -75.0189 35° Northeast 517 595 35,000  Level Washington Center
12:41PM 39.2803 -74.9106 35° Northeast 524 603 35,000  Level Washington Center
12:42PM 39.4025 -74.8019 34° Northeast 524 603 35,000  Level Washington Center
12:44PM 39.6328 -74.5906 35° Northeast 542 624 35,000  Level New York Center
12:45PM 39.7403 -74.4911 35° Northeast 529 609 35,000  Level New York Center
12:46PM 39.8731 -74.3708 35° Northeast 529 609 35,000  Level New York Center
12:47PM 39.9911 -74.2606 36° Northeast 529 609 35,000  Level New York Center
12:48PM 40.1089 -74.1497 36° Northeast 529 609 35,000  Level New York Center
12:49PM 40.2247 -74.0411 36° Northeast 524 603 35,000 -420 Level New York Center
12:50PM 40.3444 -73.9297 35° Northeast 519 597 34,200 -1,920 Descending New York Center
12:52PM 40.5781 -73.7133 35° Northeast 519 597 29,400 -2,340 Descending Boston Center
12:53PM 40.6875 -73.6033 37° Northeast 506 582 27,300 -2,160 Descending Boston Center
12:54PM 40.7864 -73.5064 37° Northeast 499 574 25,100 -1,740 Descending Boston Center
12:55PM 40.8875 -73.3956 40° Northeast 488 562 23,900 -600 Descending Boston Center
12:56PM 40.9822 -73.2622 47° Northeast 465 535 24,000  Climbing Boston Center
12:57PM 41.0686 -73.1339 48° Northeast 458 527 24,000 -300 Level Boston Center
12:58PM 41.1464 -72.9969 53° Northeast 458 527 23,400 -540 Descending Boston Center
12:59PM 41.2033 -72.8456 63° Northeast 458 527 23,000 -240 Descending Boston Center
01:00PM 41.2600 -72.6914 64° Northeast 453 521 23,000  Level Boston Center
01:01PM 41.3125 -72.5506 64° Northeast 460 529 23,000  Level Boston Center
01:02PM 41.3689 -72.3958 64° Northeast 460 529 23,000 -660 Level Boston Center
01:03PM 41.4311 -72.2325 63° Northeast 454 522 21,700 -1,620 Descending Boston Center
01:04PM 41.4850 -72.0853 64° Northeast 442 509 19,800 -2,040 Descending Boston Center
01:05PM 41.5386 -71.9436 63° Northeast 429 494 17,600 -2,040 Descending Boston Center
01:06PM 41.5839 -71.8211 64° Northeast 417 480 15,900 -1,980 Descending Boston Center
01:07PM 41.6372 -71.6733 64° Northeast 402 463 13,800 -1,860 Descending Boston Center
01:08PM 41.6800 -71.5561 64° Northeast 394 453 12,200 -1,320 Descending Boston Center
01:09PM 41.7350 -71.4108 63° Northeast 372 428 11,000 -600 Descending Boston Center
01:10PM 41.7986 -71.3067 51° Northeast 333 383 11,000 -360 Level Boston Center
01:11PM 41.8606 -71.2497 34° Northeast 302 348 10,300 -1,260 Descending Boston Center
01:12PM 41.9414 -71.2092 20° North 283 326 8,500 -1,680 Descending Boston Center
01:13PM 42.0058 -71.1772 20° North 276 318 7,000 -1,800 Descending Boston Center
01:14PM 42.0825 -71.1422 19° North 265 305 5,000 -1,800 Descending Boston Center
01:15PM 42.1500 -71.1000 25° Northeast 261 300 3,700 -1,080 Descending KA90
01:16PM 42.2167 -71.0833 10° North 229 264 3,000 -840 Descending KA90
01:17PM 42.2667 -71.0500 26° Northeast 180 207 2,100 -960 Descending KA90
01:18PM 42.3000 -71.0333 20° North 167 192 1,100 -900 Descending KA90
01:19PM 42.3333 -71.0167 20° North 139 160 300 3,180 Descending KA90
01:21PM 42.4264 -70.9719 20° North 157 181 11,000 3,420 Climbing Boston Center
01:22PM 42.4678 -70.9511 20° North 157 181 11,000  Level Boston Center
01:24PM 42.3630 -71.0064 200° South  Level Estimated
01:31PM 42.3630 -71.0064 200° South  Level Estimated
01:32PM 42.3630 -71.0064 200° South  Level Estimated
01:33PM 42.3630 -71.0064 200° South  Level Estimated
01:34PM 42.3630 -71.0064 200° South  Level Estimated
01:35PM 42.3630 -71.0064 200° South  Level Estimated